Hovedside
METAR-TAF:

METAR-TAF

Lufthavner :

Jämsä, Finland

Halli lufthavn

breddegrad: 61-51N, lengdegrad: 024-48E, høyde over havet: 143 m

Gjeldene værobservasjon

Denne rapporten ble laget for 32 minutter siden, klokken 09:50 UTC
Vind 9 kt fra Sørvest
Temperatur 15°C
Luftfuktighet 82%
Trykk 993 hPa
Sikt 10 km eller mer
Få skyer i en høyde av 3500 ft

METAR: EFHA 250950Z AUTO 23009KT 9999 FEW035 15/12 Q0993

Tid: 13:22 (10:22 UTC)


TAF: fraværende

Værobservasjoner og værvarsel for over 4000 flyplasser (METAR- og TAF-rapporter).

Tilgjengelige stasjoner er representert av de røde og gule prikkene på kartet.

Hold musepekeren over prikken for å se navnet på stasjonen.

Klikk så for å se værobservasjoner og -varsler.

For å forandre kartet kan du klikke på den grønne knappen med svart kryss for å zoome inn, på den grønne knappen med strek for å zoome ut, eller på de grønne pilene for å se tilstøtende kart.


METAR-TAF: